Observation data for Andrews on 10/14/2019      Previous  Date       Current Mesonet Observations  Soil Data  Daily Summary Page  Observations in Plain Language
KANS 140500Z 21007KT 20/05 A3001 RMK A01 T01970051  RH  039%=      5-min Rain = 0
KANS 140505Z 21006KT 20/05 A3001 RMK A01 T01970053  RH  039%=      5-min Rain = 0
KANS 140510Z 21007KT 20/05 A3001 RMK A01 T01960054  RH  040%=      5-min Rain = 0
KANS 140515Z 21007KT 20/05 A3001 RMK A01 T01960054  RH  040%=      5-min Rain = 0
KANS 140520Z 21006KT 20/06 A3001 RMK A01 T01950055  RH  040%=      5-min Rain = 0
KANS 140525Z 21005KT 19/06 A3001 RMK A01 T01940056  RH  041%=      5-min Rain = 0
KANS 140530Z 21006KT 19/06 A3001 RMK A01 T01920057  RH  042%=      5-min Rain = 0
KANS 140535Z 21007KT 19/06 A3001 RMK A01 T01920056  RH  041%=      5-min Rain = 0
KANS 140540Z 21007KT 19/06 A3001 RMK A01 T01930057  RH  041%=      5-min Rain = 0
KANS 140545Z 21007KT 19/06 A3001 RMK A01 T01930056  RH  041%=      5-min Rain = 0
KANS 140550Z 20007KT 19/06 A3001 RMK A01 T01930057  RH  041%=      5-min Rain = 0
KANS 140555Z 20007KT 19/06 A3001 RMK A01 T01930056  RH  041%=      5-min Rain = 0
KANS 140600Z 21006KT 19/06 A3001 RMK A01 T01920057  RH  042%=      5-min Rain = 0
KANS 140605Z 21007KT 19/06 A3001 RMK A01 T01910058  RH  042%=      5-min Rain = 0
KANS 140610Z 21007KT 19/06 A30 RMK A01 T01890059  RH  043%=      5-min Rain = 0
KANS 140615Z 21006KT 19/06 A30 RMK A01 T01880059  RH  043%=      5-min Rain = 0
KANS 140620Z 21007KT 19/06 A30 RMK A01 T01870060  RH  044%=      5-min Rain = 0
KANS 140625Z 21006KT 19/06 A30 RMK A01 T01850061  RH  045%=      5-min Rain = 0
KANS 140630Z 21006KT 18/06 A30 RMK A01 T01840062  RH  045%=      5-min Rain = 0
KANS 140635Z 22006KT 18/06 A30 RMK A01 T01820062  RH  046%=      5-min Rain = 0
KANS 140640Z 22006KT 18/06 A30 RMK A01 T01810063  RH  047%=      5-min Rain = 0
KANS 140645Z 22007KT 18/06 A30 RMK A01 T01800063  RH  047%=      5-min Rain = 0
KANS 140650Z 22006KT 18/06 A30 RMK A01 T01790064  RH  047%=      5-min Rain = 0
KANS 140655Z 23005KT 18/07 A30 RMK A01 T01780065  RH  048%=      5-min Rain = 0
KANS 140700Z 24005KT 18/07 A30 RMK A01 T01770067  RH  049%=      5-min Rain = 0
KANS 140705Z 23006KT 17/07 A30 RMK A01 T01740067  RH  050%=      5-min Rain = 0
KANS 140710Z 23006KT 17/07 A30 RMK A01 T01730067  RH  051%=      5-min Rain = 0
KANS 140715Z 22005KT 17/07 A30 RMK A01 T01710068  RH  051%=      5-min Rain = 0
KANS 140720Z 23005KT 17/07 A30 RMK A01 T01700069  RH  052%=      5-min Rain = 0
KANS 140725Z 23005KT 17/07 A30 RMK A01 T01680070  RH  053%=      5-min Rain = 0
KANS 140730Z 23005KT 17/07 A30 RMK A01 T01660072  RH  055%=      5-min Rain = 0
KANS 140735Z 22005KT 16/07 A30 RMK A01 T01640072  RH  055%=      5-min Rain = 0
KANS 140740Z 22006KT 16/07 A30 RMK A01 T01630072  RH  055%=      5-min Rain = 0
KANS 140745Z 23006KT 16/07 A30 RMK A01 T01640071  RH  055%=      5-min Rain = 0
KANS 140750Z 24006KT 16/07 A30 RMK A01 T01640072  RH  055%=      5-min Rain = 0
KANS 140755Z 24005KT 16/07 A30 RMK A01 T01630072  RH  056%=      5-min Rain = 0
KANS 140800Z 24005KT 16/07 A30 RMK A01 T01620072  RH  056%=      5-min Rain = 0
KANS 140805Z 24005KT 16/07 A2999 RMK A01 T01610072  RH  056%=      5-min Rain = 0
KANS 140810Z 24005KT 16/07 A2999 RMK A01 T01600073  RH  057%=      5-min Rain = 0
KANS 140815Z 24006KT 16/07 A2999 RMK A01 T01580073  RH  058%=      5-min Rain = 0
KANS 140820Z 25006KT 16/07 A2999 RMK A01 T01590073  RH  057%=      5-min Rain = 0
KANS 140825Z 25005KT 16/07 A2999 RMK A01 T01610073  RH  057%=      5-min Rain = 0
KANS 140830Z 22006KT 16/07 A30 RMK A01 T01600074  RH  057%=      5-min Rain = 0
KANS 140835Z 23006KT 16/08 A30 RMK A01 T01610076  RH  058%=      5-min Rain = 0
KANS 140840Z 24006KT 16/07 A2999 RMK A01 T01630074  RH  056%=      5-min Rain = 0
KANS 140845Z 23006KT 16/08 A2999 RMK A01 T01640075  RH  056%=      5-min Rain = 0
KANS 140850Z 24006KT 16/08 A2999 RMK A01 T01640076  RH  057%=      5-min Rain = 0
KANS 140855Z 23006KT 16/08 A2999 RMK A01 T01640076  RH  057%=      5-min Rain = 0
KANS 140900Z 23006KT 16/08 A2998 RMK A01 T01640076  RH  057%=      5-min Rain = 0
KANS 140905Z 23006KT 17/07 A2998 RMK A01 T01660074  RH  055%=      5-min Rain = 0
KANS 140910Z 23005KT 17/08 A2998 RMK A01 T01680075  RH  055%=      5-min Rain = 0
KANS 140915Z 24005KT 17/08 A2998 RMK A01 T01670076  RH  056%=      5-min Rain = 0
KANS 140920Z 26005KT 17/08 A2998 RMK A01 T01670075  RH  055%=      5-min Rain = 0
KANS 140925Z 24006KT 17/07 A2998 RMK A01 T01690074  RH  054%=      5-min Rain = 0
KANS 140930Z 24006KT 17/07 A2998 RMK A01 T01700074  RH  054%=      5-min Rain = 0
KANS 140935Z 22006KT 17/08 A2998 RMK A01 T01690075  RH  055%=      5-min Rain = 0
KANS 140940Z 23006KT 17/08 A2998 RMK A01 T01680077  RH  056%=      5-min Rain = 0
KANS 140945Z 24005KT 17/08 A2998 RMK A01 T01680077  RH  056%=      5-min Rain = 0
KANS 140950Z 24005KT 17/08 A2998 RMK A01 T01670078  RH  056%=      5-min Rain = 0
KANS 140955Z 23005KT 17/08 A2998 RMK A01 T01660077  RH  057%=      5-min Rain = 0
KANS 141000Z 24005KT 17/08 A2998 RMK A01 T01650078  RH  057%=      5-min Rain = 0
KANS 141005Z 23005KT 16/08 A2998 RMK A01 T01640078  RH  058%=      5-min Rain = 0
KANS 141010Z 22005KT 16/08 A2998 RMK A01 T01630079  RH  058%=      5-min Rain = 0
KANS 141015Z 21005KT 16/08 A2998 RMK A01 T01640080  RH  058%=      5-min Rain = 0
KANS 141020Z 22006KT 17/08 A2998 RMK A01 T01650078  RH  057%=      5-min Rain = 0
KANS 141025Z 23006KT 17/08 A2998 RMK A01 T01670078  RH  057%=      5-min Rain = 0
KANS 141030Z 22006KT 17/08 A2998 RMK A01 T01670078  RH  057%=      5-min Rain = 0
KANS 141035Z 23005KT 17/08 A2998 RMK A01 T01680079  RH  056%=      5-min Rain = 0
KANS 141040Z 21006KT 17/08 A2998 RMK A01 T01690080  RH  056%=      5-min Rain = 0
KANS 141045Z 21005KT 17/08 A2998 RMK A01 T01700080  RH  056%=      5-min Rain = 0
KANS 141050Z 21005KT 17/08 A2998 RMK A01 T01700080  RH  056%=      5-min Rain = 0
KANS 141055Z 20005KT 17/08 A2999 RMK A01 T01700081  RH  057%=      5-min Rain = 0
KANS 141100Z 22004KT 17/08 A2999 RMK A01 T01710082  RH  057%=      5-min Rain = 0
KANS 141105Z 23005KT 17/08 A2998 RMK A01 T01700083  RH  057%=      5-min Rain = 0
KANS 141110Z 21005KT 17/08 A2999 RMK A01 T01700084  RH  058%=      5-min Rain = 0
KANS 141115Z 26003KT 17/09 A2999 RMK A01 T01680085  RH  059%=      5-min Rain = 0
KANS 141120Z 26003KT 17/09 A2999 RMK A01 T01660085  RH  059%=      5-min Rain = 0
KANS 141125Z 24004KT 17/08 A2999 RMK A01 T01650084  RH  060%=      5-min Rain = 0
KANS 141130Z 24004KT 17/09 A2999 RMK A01 T01650085  RH  060%=      5-min Rain = 0
KANS 141135Z 22004KT 16/09 A2999 RMK A01 T01630085  RH  061%=      5-min Rain = 0
KANS 141140Z 20004KT 16/09 A2998 RMK A01 T01630086  RH  061%=      5-min Rain = 0
KANS 141145Z 20004KT 16/09 A2999 RMK A01 T01630086  RH  061%=      5-min Rain = 0
KANS 141150Z 19004KT 16/09 A2999 RMK A01 T01630086  RH  061%=      5-min Rain = 0
KANS 141155Z 18005KT 16/09 A2999 RMK A01 T01620086  RH  062%=      5-min Rain = 0
KANS 141200Z 19006KT 16/09 A30 RMK A01 T01620086  RH  062%=      5-min Rain = 0
KANS 141205Z 19005KT 16/09 A30 RMK A01 T01630085  RH  061%=      5-min Rain = 0
KANS 141210Z 19006KT 17/09 A30 RMK A01 T01650085  RH  060%=      5-min Rain = 0
KANS 141215Z 19006KT 17/09 A30 RMK A01 T01650085  RH  060%=      5-min Rain = 0
KANS 141220Z 20006KT 17/08 A30 RMK A01 T01650084  RH  060%=      5-min Rain = 0
KANS 141225Z 20006KT 17/09 A3001 RMK A01 T01670085  RH  059%=      5-min Rain = 0
KANS 141230Z 20005KT 17/09 A3001 RMK A01 T01680085  RH  059%=      5-min Rain = 0
KANS 141235Z 23004KT 17/09 A3001 RMK A01 T01690086  RH  059%=      5-min Rain = 0
KANS 141240Z 24004KT 17/09 A3002 RMK A01 T01690088  RH  060%=      5-min Rain = 0
KANS 141245Z 22003KT 17/09 A3001 RMK A01 T01690089  RH  060%=      5-min Rain = 0
KANS 141250Z 21005KT 17/09 A3001 RMK A01 T01680089  RH  061%=      5-min Rain = 0
KANS 141255Z 20005KT 17/09 A3001 RMK A01 T01680090  RH  061%=      5-min Rain = 0
KANS 141300Z 20005KT 17/09 A3001 RMK A01 T01670091  RH  061%=      5-min Rain = 0
KANS 141305Z 18006KT 17/09 A30 RMK A01 T01680091  RH  061%=      5-min Rain = 0
KANS 141310Z 19007KT 17/09 A30 RMK A01 T01690091  RH  061%=      5-min Rain = 0
KANS 141315Z 19006KT 17/09 A3001 RMK A01 T01700091  RH  061%=      5-min Rain = 0
KANS 141320Z 20004KT 17/09 A3001 RMK A01 T01710091  RH  060%=      5-min Rain = 0
KANS 141325Z 24004KT 17/09 A3001 RMK A01 T01710092  RH  060%=      5-min Rain = 0
KANS 141330Z 23006KT 17/09 A3002 RMK A01 T01710093  RH  061%=      5-min Rain = 0
KANS 141335Z 23005KT 17/09 A3002 RMK A01 T01720094  RH  061%=      5-min Rain = 0
KANS 141340Z 25005KT 17/10 A3002 RMK A01 T01740096  RH  061%=      5-min Rain = 0
KANS 141345Z 23005KT 17/10 A3003 RMK A01 T01740098  RH  062%=      5-min Rain = 0
KANS 141350Z 23005KT 18/10 A3003 RMK A01 T01750099  RH  062%=      5-min Rain = 0
KANS 141355Z 21006KT 18/10 A3003 RMK A01 T01760099  RH  062%=      5-min Rain = 0
KANS 141400Z 21006KT 18/10 A3003 RMK A01 T01760100  RH  062%=      5-min Rain = 0
KANS 141405Z 21006KT 18/10 A3003 RMK A01 T01770100  RH  062%=      5-min Rain = 0
KANS 141410Z 21006KT 18/10 A3003 RMK A01 T01780101  RH  062%=      5-min Rain = 0
KANS 141415Z 21005KT 18/10 A3003 RMK A01 T01790101  RH  062%=      5-min Rain = 0
KANS 141420Z 21005KT 18/10 A3003 RMK A01 T01800101  RH  061%=      5-min Rain = 0
KANS 141425Z 20006KT 18/10 A3003 RMK A01 T01800101  RH  061%=      5-min Rain = 0
KANS 141430Z 20007KT 18/10 A3003 RMK A01 T01810101  RH  061%=      5-min Rain = 0
KANS 141435Z 20007KT 18/10 A3004 RMK A01 T01810101  RH  061%=      5-min Rain = 0
KANS 141440Z 22008KT 18/10 A3004 RMK A01 T01820102  RH  061%=      5-min Rain = 0
KANS 141445Z 22006KT 18/10 A3004 RMK A01 T01830103  RH  060%=      5-min Rain = 0
KANS 141450Z 21007KT 18/10 A3004 RMK A01 T01840103  RH  060%=      5-min Rain = 0
KANS 141455Z 20006G11KT 19/10 A3004 RMK A01 T01860104  RH  060%=      5-min Rain = 0
KANS 141500Z 21007KT 19/10 A3004 RMK A01 T01880104  RH  059%=      5-min Rain = 0
KANS 141505Z 21008KT 19/10 A3004 RMK A01 T01890104  RH  059%=      5-min Rain = 0
KANS 141510Z 21006KT 19/11 A3004 RMK A01 T01900106  RH  059%=      5-min Rain = 0
KANS 141515Z 21006KT 19/11 A3004 RMK A01 T01910107  RH  059%=      5-min Rain = 0
KANS 141520Z 21006KT 19/11 A3005 RMK A01 T01920108  RH  059%=      5-min Rain = 0
KANS 141525Z 21006KT 19/11 A3005 RMK A01 T01940108  RH  059%=      5-min Rain = 0
KANS 141530Z 21007KT 20/11 A3005 RMK A01 T01950109  RH  058%=      5-min Rain = 0
KANS 141535Z 21007KT 20/11 A3005 RMK A01 T01970110  RH  058%=      5-min Rain = 0
KANS 141540Z 21007KT 20/11 A3005 RMK A01 T01980111  RH  058%=      5-min Rain = 0
KANS 141545Z 20008KT 20/11 A3005 RMK A01 T01990112  RH  058%=      5-min Rain = 0
KANS 141550Z 20007KT 20/11 A3006 RMK A01 T01990112  RH  058%=      5-min Rain = 0
KANS 141555Z 21007KT 20/11 A3005 RMK A01 T02000114  RH  059%=      5-min Rain = 0
KANS 141600Z 21007KT 20/12 A3006 RMK A01 T02010115  RH  059%=      5-min Rain = 0
KANS 141605Z 21007KT 20/12 A3006 RMK A01 T02030116  RH  058%=      5-min Rain = 0
KANS 141610Z 21007G12KT 21/12 A3005 RMK A01 T02060117  RH  058%=      5-min Rain = 0
KANS 141615Z 21008KT 21/12 A3005 RMK A01 T02060117  RH  058%=      5-min Rain = 0
KANS 141620Z 21007KT 21/12 A3005 RMK A01 T02080118  RH  057%=      5-min Rain = 0
KANS 141625Z 20007G12KT 21/12 A3005 RMK A01 T02110119  RH  057%=      5-min Rain = 0
KANS 141630Z 21009KT 21/12 A3005 RMK A01 T02140119  RH  056%=      5-min Rain = 0
KANS 141635Z 21008KT 22/12 A3004 RMK A01 T02180120  RH  055%=      5-min Rain = 0
KANS 141640Z 21010KT 22/12 A3004 RMK A01 T02210119  RH  054%=      5-min Rain = 0
KANS 141645Z 21008G13KT 22/12 A3004 RMK A01 T02230120  RH  053%=      5-min Rain = 0
KANS 141650Z 20009G14KT 23/12 A3004 RMK A01 T02260120  RH  052%=      5-min Rain = 0
KANS 141655Z 21009G14KT 23/12 A3004 RMK A01 T02290121  RH  052%=      5-min Rain = 0
KANS 141700Z 21010G15KT 23/12 A3004 RMK A01 T02320123  RH  051%=      5-min Rain = 0
KANS 141705Z 21011KT 23/13 A3004 RMK A01 T02340125  RH  051%=      5-min Rain = 0
KANS 141710Z 21010KT 24/13 A3004 RMK A01 T02370127  RH  051%=      5-min Rain = 0
KANS 141715Z 21011G17KT 24/13 A3004 RMK A01 T02390127  RH  050%=      5-min Rain = 0
KANS 141720Z 22011G17KT 24/13 A3004 RMK A01 T02390128  RH  051%=      5-min Rain = 0
KANS 141725Z 22010G15KT 24/13 A3004 RMK A01 T02400129  RH  051%=      5-min Rain = 0
KANS 141730Z 21012G17KT 24/13 A3004 RMK A01 T02400129  RH  051%=      5-min Rain = 0
KANS 141735Z 23010KT 24/13 A3003 RMK A01 T02380130  RH  052%=      5-min Rain = 0
KANS 141740Z 22011G17KT 24/13 A3003 RMK A01 T02370130  RH  052%=      5-min Rain = 0
KANS 141745Z 22010G16KT 24/13 A3003 RMK A01 T02360130  RH  052%=      5-min Rain = 0
KANS 141750Z 22010G15KT 24/13 A3002 RMK A01 T02430131  RH  051%=      5-min Rain = 0
KANS 141755Z 22011KT 25/13 A3003 RMK A01 T02500129  RH  048%=      5-min Rain = 0
KANS 141800Z 22010G17KT 26/13 A3002 RMK A01 T02550129  RH  047%=      5-min Rain = 0
KANS 141805Z 21011G16KT 25/13 A3002 RMK A01 T02540129  RH  047%=      5-min Rain = 0
KANS 141810Z 20011G16KT 25/13 A3002 RMK A01 T02530127  RH  046%=      5-min Rain = 0
KANS 141815Z 21010G17KT 25/13 A3001 RMK A01 T02530127  RH  046%=      5-min Rain = 0
KANS 141820Z 22011G16KT 26/13 A3001 RMK A01 T02560127  RH  046%=      5-min Rain = 0
KANS 141825Z 22010G15KT 26/13 A3001 RMK A01 T02550126  RH  045%=      5-min Rain = 0
KANS 141830Z 21011G16KT 26/13 A3001 RMK A01 T02560126  RH  045%=      5-min Rain = 0
KANS 141835Z 21010G18KT 26/13 A30 RMK A01 T02600128  RH  045%=      5-min Rain = 0
KANS 141840Z 24010G16KT 26/13 A30 RMK A01 T02600127  RH  045%=      5-min Rain = 0
KANS 141845Z 22012G18KT 26/13 A30 RMK A01 T02590126  RH  045%=      5-min Rain = 0
KANS 141850Z 22010G15KT 25/13 A2999 RMK A01 T02530128  RH  047%=      5-min Rain = 0
KANS 141855Z 23010G16KT 25/13 A2999 RMK A01 T02540127  RH  046%=      5-min Rain = 0
KANS 141900Z 22008KT 25/13 A2999 RMK A01 T02530127  RH  047%=      5-min Rain = 0
KANS 141905Z 20008KT 25/13 A2998 RMK A01 T02540126  RH  046%=      5-min Rain = 0
KANS 141910Z 21010G15KT 25/13 A2998 RMK A01 T02540126  RH  046%=      5-min Rain = 0
KANS 141915Z 23007KT 26/13 A2997 RMK A01 T02560127  RH  045%=      5-min Rain = 0
KANS 141920Z 22008KT 26/13 A2997 RMK A01 T02580128  RH  045%=      5-min Rain = 0
KANS 141925Z 21006G14KT 27/13 A2997 RMK A01 T02660126  RH  043%=      5-min Rain = 0
KANS 141930Z 24008G13KT 27/13 A2996 RMK A01 T02670125  RH  042%=      5-min Rain = 0
KANS 141935Z 22009KT 27/13 A2996 RMK A01 T02650126  RH  043%=      5-min Rain = 0
KANS 141940Z 23008KT 26/13 A2996 RMK A01 T02620127  RH  044%=      5-min Rain = 0
KANS 141945Z 19008KT 26/13 A2995 RMK A01 T02600125  RH  044%=      5-min Rain = 0
KANS 141950Z 23008G13KT 26/13 A2995 RMK A01 T02620126  RH  044%=      5-min Rain = 0
KANS 141955Z 24008KT 27/13 A2995 RMK A01 T02650127  RH  043%=      5-min Rain = 0
KANS 142000Z 22008KT 27/13 A2995 RMK A01 T02690127  RH  042%=      5-min Rain = 0
KANS 142005Z 23006G11KT 27/13 A2995 RMK A01 T02700126  RH  042%=      5-min Rain = 0
KANS 142010Z 24008G13KT 27/13 A2995 RMK A01 T02700127  RH  042%=      5-min Rain = 0
KANS 142015Z 24009G14KT 27/13 A2995 RMK A01 T02700127  RH  042%=      5-min Rain = 0
KANS 142020Z 24009G14KT 27/13 A2995 RMK A01 T02720128  RH  042%=      5-min Rain = 0
KANS 142025Z 20006KT 27/13 A2995 RMK A01 T02720126  RH  041%=      5-min Rain = 0
KANS 142030Z 22010G15KT 27/13 A2995 RMK A01 T02700126  RH  042%=      5-min Rain = 0
KANS 142035Z 22010G15KT 27/12 A2995 RMK A01 T02730124  RH  041%=      5-min Rain = 0
KANS 142040Z 22010KT 27/12 A2994 RMK A01 T02710124  RH  041%=      5-min Rain = 0
KANS 142045Z 23011KT 27/12 A2995 RMK A01 T02710124  RH  041%=      5-min Rain = 0
KANS 142050Z 23008KT 27/13 A2995 RMK A01 T02650126  RH  043%=      5-min Rain = 0
KANS 142055Z 21009G14KT 26/13 A2994 RMK A01 T02620129  RH  045%=      5-min Rain = 0
KANS 142100Z 20010KT 26/14 A2994 RMK A01 T02620135  RH  046%=      5-min Rain = 0
KANS 142105Z 21011G16KT 26/13 A2995 RMK A01 T02640134  RH  046%=      5-min Rain = 0
KANS 142110Z 20011G16KT 27/13 A2994 RMK A01 T02670134  RH  045%=      5-min Rain = 0
KANS 142115Z 22009G15KT 27/13 A2994 RMK A01 T02700133  RH  043%=      5-min Rain = 0
KANS 142120Z 21009KT 27/13 A2994 RMK A01 T02680133  RH  044%=      5-min Rain = 0
KANS 142125Z 21011G17KT 27/13 A2994 RMK A01 T02660133  RH  045%=      5-min Rain = 0
KANS 142130Z 20009G16KT 27/13 A2994 RMK A01 T02650133  RH  045%=      5-min Rain = 0
KANS 142135Z 22009G14KT 27/13 A2994 RMK A01 T02660131  RH  044%=      5-min Rain = 0
KANS 142140Z 21012G17KT 27/13 A2994 RMK A01 T02660130  RH  044%=      5-min Rain = 0
KANS 142145Z 21010G16KT 27/13 A2994 RMK A01 T02670129  RH  043%=      5-min Rain = 0
KANS 142150Z 21012G17KT 26/13 A2994 RMK A01 T02630129  RH  044%=      5-min Rain = 0
KANS 142155Z 21011KT 26/13 A2994 RMK A01 T02610128  RH  045%=      5-min Rain = 0
KANS 142200Z 21011G18KT 26/13 A2994 RMK A01 T02580128  RH  045%=      5-min Rain = 0
KANS 142205Z 20007G13KT 26/13 A2994 RMK A01 T02570130  RH  046%=      5-min Rain = 0
KANS 142210Z 21011G17KT 26/13 A2994 RMK A01 T02610126  RH  044%=      5-min Rain = 0
KANS 142215Z 22009G15KT 26/13 A2994 RMK A01 T02610126  RH  044%=      5-min Rain = 0
KANS 142220Z 21011G17KT 27/13 A2994 RMK A01 T02650125  RH  043%=      5-min Rain = 0
KANS 142225Z 21009G14KT 27/12 A2994 RMK A01 T02650124  RH  042%=      5-min Rain = 0
KANS 142230Z 22010G15KT 27/12 A2994 RMK A01 T02660123  RH  042%=      5-min Rain = 0
KANS 142235Z 23012KT 27/12 A2994 RMK A01 T02660122  RH  042%=      5-min Rain = 0
KANS 142240Z 22012G17KT 27/12 A2994 RMK A01 T02660121  RH  041%=      5-min Rain = 0
KANS 142245Z 23010KT 27/12 A2994 RMK A01 T02680122  RH  041%=      5-min Rain = 0
KANS 142250Z 23010KT 27/12 A2993 RMK A01 T02680122  RH  041%=      5-min Rain = 0
KANS 142255Z 22009KT 27/12 A2993 RMK A01 T02660123  RH  042%=      5-min Rain = 0
KANS 142300Z 23008G14KT 27/12 A2993 RMK A01 T02650124  RH  042%=      5-min Rain = 0
KANS 142305Z 23008KT 27/12 A2993 RMK A01 T02660124  RH  042%=      5-min Rain = 0
KANS 142310Z 23010G16KT 26/12 A2993 RMK A01 T02630123  RH  042%=      5-min Rain = 0
KANS 142315Z 22008KT 26/12 A2993 RMK A01 T02600124  RH  044%=      5-min Rain = 0
KANS 142320Z 22008KT 26/13 A2993 RMK A01 T02580125  RH  044%=      5-min Rain = 0
KANS 142325Z 22006KT 26/13 A2993 RMK A01 T02580126  RH  045%=      5-min Rain = 0
KANS 142330Z 21008KT 26/12 A2993 RMK A01 T02600124  RH  043%=      5-min Rain = 0
KANS 142335Z 20007KT 26/12 A2993 RMK A01 T02620123  RH  043%=      5-min Rain = 0
KANS 142340Z 20010G16KT 26/12 A2993 RMK A01 T02620122  RH  042%=      5-min Rain = 0
KANS 142345Z 20011KT 26/13 A2993 RMK A01 T02600127  RH  044%=      5-min Rain = 0
KANS 142350Z 20008KT 26/13 A2993 RMK A01 T02580130  RH  046%=      5-min Rain = 0
KANS 142355Z 20010KT 26/13 A2993 RMK A01 T02550133  RH  047%=      5-min Rain = 0
KANS 150000Z 19009KT 25/14 A2993 RMK A01 T02520135  RH  049%=      5-min Rain = 0
KANS 150005Z 19009KT 25/14 A2993 RMK A01 T02480137  RH  051%=      5-min Rain = 0
KANS 150010Z 19009KT 25/14 A2993 RMK A01 T02450137  RH  052%=      5-min Rain = 0
KANS 150015Z 18009G14KT 24/14 A2993 RMK A01 T02430137  RH  053%=      5-min Rain = 0
KANS 150020Z 19011G16KT 24/14 A2993 RMK A01 T02410137  RH  053%=      5-min Rain = 0
KANS 150025Z 19010KT 24/14 A2994 RMK A01 T02390137  RH  054%=      5-min Rain = 0
KANS 150030Z 20009G15KT 24/14 A2994 RMK A01 T02380138  RH  054%=      5-min Rain = 0
KANS 150035Z 20009KT 24/14 A2994 RMK A01 T02350138  RH  055%=      5-min Rain = 0
KANS 150040Z 20008KT 23/14 A2994 RMK A01 T02340138  RH  056%=      5-min Rain = 0
KANS 150045Z 19009KT 23/14 A2994 RMK A01 T02330137  RH  056%=      5-min Rain = 0
KANS 150050Z 20008KT 23/14 A2994 RMK A01 T02330137  RH  056%=      5-min Rain = 0
KANS 150055Z 20008KT 23/14 A2995 RMK A01 T02310137  RH  056%=      5-min Rain = 0
KANS 150100Z 19009KT 23/14 A2995 RMK A01 T02300137  RH  057%=      5-min Rain = 0
KANS 150105Z 20009KT 23/14 A2995 RMK A01 T02290138  RH  057%=      5-min Rain = 0
KANS 150110Z 20008KT 23/14 A2995 RMK A01 T02280138  RH  058%=      5-min Rain = 0
KANS 150115Z 20008KT 23/14 A2995 RMK A01 T02270138  RH  058%=      5-min Rain = 0
KANS 150120Z 20008G13KT 23/14 A2996 RMK A01 T02260138  RH  059%=      5-min Rain = 0
KANS 150125Z 20009KT 23/14 A2995 RMK A01 T02260138  RH  059%=      5-min Rain = 0
KANS 150130Z 20009KT 23/14 A2996 RMK A01 T02260139  RH  059%=      5-min Rain = 0
KANS 150135Z 19009KT 23/14 A2996 RMK A01 T02250139  RH  059%=      5-min Rain = 0
KANS 150140Z 19008KT 22/14 A2996 RMK A01 T02240139  RH  060%=      5-min Rain = 0
KANS 150145Z 19007KT 22/14 A2996 RMK A01 T02220139  RH  060%=      5-min Rain = 0
KANS 150150Z 19006KT 22/14 A2996 RMK A01 T02200139  RH  061%=      5-min Rain = 0
KANS 150155Z 19006KT 22/14 A2996 RMK A01 T02170139  RH  062%=      5-min Rain = 0
KANS 150200Z 19007KT 21/14 A2996 RMK A01 T02140139  RH  063%=      5-min Rain = 0
KANS 150205Z 19007KT 21/14 A2996 RMK A01 T02140140  RH  064%=      5-min Rain = 0
KANS 150210Z 20007KT 21/14 A2996 RMK A01 T02130141  RH  065%=      5-min Rain = 0
KANS 150215Z 19007KT 21/14 A2997 RMK A01 T02130141  RH  065%=      5-min Rain = 0
KANS 150220Z 19008KT 21/14 A2996 RMK A01 T02130142  RH  065%=      5-min Rain = 0
KANS 150225Z 20007KT 21/14 A2997 RMK A01 T02130142  RH  065%=      5-min Rain = 0
KANS 150230Z 20007KT 21/14 A2997 RMK A01 T02120143  RH  066%=      5-min Rain = 0
KANS 150235Z 20008G13KT 21/14 A2997 RMK A01 T02130143  RH  066%=      5-min Rain = 0
KANS 150240Z 19007G12KT 21/14 A2997 RMK A01 T02120143  RH  066%=      5-min Rain = 0
KANS 150245Z 20006KT 21/14 A2997 RMK A01 T02100143  RH  067%=      5-min Rain = 0
KANS 150250Z 20007KT 21/14 A2997 RMK A01 T02090143  RH  067%=      5-min Rain = 0
KANS 150255Z 20007KT 21/14 A2998 RMK A01 T02080143  RH  068%=      5-min Rain = 0
KANS 150300Z 19008KT 21/14 A2998 RMK A01 T02080144  RH  068%=      5-min Rain = 0
KANS 150305Z 20007KT 21/14 A2998 RMK A01 T02070143  RH  068%=      5-min Rain = 0
KANS 150310Z 20007KT 21/14 A2998 RMK A01 T02060144  RH  069%=      5-min Rain = 0
KANS 150315Z 20008KT 21/14 A2998 RMK A01 T02060144  RH  069%=      5-min Rain = 0
KANS 150320Z 20007KT 21/15 A2999 RMK A01 T02060145  RH  069%=      5-min Rain = 0
KANS 150325Z 20008KT 21/15 A2999 RMK A01 T02060145  RH  069%=      5-min Rain = 0
KANS 150330Z 21008KT 21/15 A2999 RMK A01 T02060145  RH  069%=      5-min Rain = 0
KANS 150335Z 21007KT 21/15 A2999 RMK A01 T02060145  RH  069%=      5-min Rain = 0
KANS 150340Z 20007KT 21/15 A2999 RMK A01 T02050145  RH  070%=      5-min Rain = 0
KANS 150345Z 21007KT 20/15 A2999 RMK A01 T02040145  RH  070%=      5-min Rain = 0
KANS 150350Z 20006KT 20/14 A2999 RMK A01 T02030144  RH  071%=      5-min Rain = 0
KANS 150355Z 20006KT 20/15 A2999 RMK A01 T02020145  RH  071%=      5-min Rain = 0
KANS 150400Z 20005KT 20/14 A2999 RMK A01 T02010144  RH  071%=      5-min Rain = 0
KANS 150405Z 21004KT 20/14 A2999 RMK A01 T02000144  RH  072%=      5-min Rain = 0
KANS 150410Z 22005KT 20/14 A2999 RMK A01 T02000144  RH  072%=      5-min Rain = 0
KANS 150415Z 21005KT 20/14 A2999 RMK A01 T02000144  RH  072%=      5-min Rain = 0
KANS 150420Z 22005KT 20/14 A2999 RMK A01 T01990144  RH  072%=      5-min Rain = 0
KANS 150425Z 22005KT 20/14 A30 RMK A01 T01990144  RH  072%=      5-min Rain = 0
KANS 150430Z 22005KT 20/14 A2999 RMK A01 T01990144  RH  072%=      5-min Rain = 0
KANS 150435Z 21005KT 20/14 A2999 RMK A01 T01990144  RH  072%=      5-min Rain = 0
KANS 150440Z 20007KT 20/15 A2999 RMK A01 T02010145  RH  072%=      5-min Rain = 0
KANS 150445Z 20008G13KT 20/14 A2999 RMK A01 T02030144  RH  070%=      5-min Rain = 0
KANS 150450Z 20008G13KT 20/14 A2999 RMK A01 T02040144  RH  070%=      5-min Rain = 0
KANS 150455Z 20009KT 21/14 A2999 RMK A01 T02050144  RH  070%=      5-min Rain = 0

Page generated in 0.0095 seconds.